sensor_id;sensor_type;location;lat;lon;timestamp;temperature;humidity
35645;DHT22;21764;52.042;6.830;2023-03-12T00:02:56;2.10;99.90
35645;DHT22;21764;52.042;6.830;2023-03-12T00:07:56;2.00;99.90
35645;DHT22;21764;52.042;6.830;2023-03-12T00:12:59;2.00;99.90
35645;DHT22;21764;52.042;6.830;2023-03-12T00:18:00;2.00;99.90
35645;DHT22;21764;52.042;6.830;2023-03-12T00:23:01;2.00;99.90
35645;DHT22;21764;52.042;6.830;2023-03-12T00:28:02;1.90;99.90
35645;DHT22;21764;52.042;6.830;2023-03-12T00:33:03;1.90;99.90
35645;DHT22;21764;52.042;6.830;2023-03-12T00:38:03;1.80;99.90
35645;DHT22;21764;52.042;6.830;2023-03-12T00:43:04;1.80;99.90
35645;DHT22;21764;52.042;6.830;2023-03-12T00:48:05;1.70;99.90
35645;DHT22;21764;52.042;6.830;2023-03-12T00:53:06;1.80;99.90
35645;DHT22;21764;52.042;6.830;2023-03-12T00:58:06;2.00;99.90
35645;DHT22;21764;52.042;6.830;2023-03-12T01:03:07;2.00;99.90
35645;DHT22;21764;52.042;6.830;2023-03-12T01:08:08;2.00;99.90
35645;DHT22;21764;52.042;6.830;2023-03-12T01:13:09;2.10;99.90
35645;DHT22;21764;52.042;6.830;2023-03-12T01:18:10;2.10;99.90
35645;DHT22;21764;52.042;6.830;2023-03-12T01:23:11;2.10;99.90
35645;DHT22;21764;52.042;6.830;2023-03-12T01:28:11;2.00;99.90
35645;DHT22;21764;52.042;6.830;2023-03-12T01:33:12;1.90;99.90
35645;DHT22;21764;52.042;6.830;2023-03-12T01:38:14;1.90;99.90
35645;DHT22;21764;52.042;6.830;2023-03-12T01:48:22;1.80;99.90
35645;DHT22;21764;52.042;6.830;2023-03-12T01:53:23;1.80;99.90
35645;DHT22;21764;52.042;6.830;2023-03-12T01:58:26;1.90;99.90
35645;DHT22;21764;52.042;6.830;2023-03-12T02:03:30;2.00;99.90
35645;DHT22;21764;52.042;6.830;2023-03-12T02:08:35;2.00;99.90
35645;DHT22;21764;52.042;6.830;2023-03-12T02:13:37;2.00;99.90
35645;DHT22;21764;52.042;6.830;2023-03-12T02:18:38;2.00;99.90
35645;DHT22;21764;52.042;6.830;2023-03-12T02:23:54;1.90;99.90
35645;DHT22;21764;52.042;6.830;2023-03-12T02:28:57;1.90;99.90
35645;DHT22;21764;52.042;6.830;2023-03-12T02:33:58;2.00;99.90
35645;DHT22;21764;52.042;6.830;2023-03-12T02:39:00;2.10;99.90
35645;DHT22;21764;52.042;6.830;2023-03-12T02:44:15;2.10;99.90
35645;DHT22;21764;52.042;6.830;2023-03-12T02:49:19;2.10;99.90
35645;DHT22;21764;52.042;6.830;2023-03-12T02:54:21;2.20;99.90
35645;DHT22;21764;52.042;6.830;2023-03-12T02:59:23;2.20;99.90
35645;DHT22;21764;52.042;6.830;2023-03-12T03:04:27;2.10;99.90
35645;DHT22;21764;52.042;6.830;2023-03-12T03:09:28;2.10;99.90
35645;DHT22;21764;52.042;6.830;2023-03-12T03:14:28;2.00;99.90
35645;DHT22;21764;52.042;6.830;2023-03-12T03:19:29;2.10;99.90
35645;DHT22;21764;52.042;6.830;2023-03-12T03:24:30;2.10;99.90
35645;DHT22;21764;52.042;6.830;2023-03-12T03:29:30;2.20;99.50
35645;DHT22;21764;52.042;6.830;2023-03-12T03:34:31;2.20;99.40
35645;DHT22;21764;52.042;6.830;2023-03-12T03:39:32;2.20;99.70
35645;DHT22;21764;52.042;6.830;2023-03-12T03:44:33;2.20;99.50
35645;DHT22;21764;52.042;6.830;2023-03-12T03:49:34;2.10;99.70
35645;DHT22;21764;52.042;6.830;2023-03-12T03:54:35;2.10;99.30
35645;DHT22;21764;52.042;6.830;2023-03-12T03:59:36;2.00;99.80
35645;DHT22;21764;52.042;6.830;2023-03-12T04:04:36;2.00;99.90
35645;DHT22;21764;52.042;6.830;2023-03-12T04:09:37;2.00;99.90
35645;DHT22;21764;52.042;6.830;2023-03-12T04:14:41;2.00;99.90
35645;DHT22;21764;52.042;6.830;2023-03-12T04:19:42;2.10;99.90
35645;DHT22;21764;52.042;6.830;2023-03-12T04:24:43;2.10;99.90
35645;DHT22;21764;52.042;6.830;2023-03-12T04:29:43;2.10;99.90
35645;DHT22;21764;52.042;6.830;2023-03-12T04:34:44;2.20;99.90
35645;DHT22;21764;52.042;6.830;2023-03-12T04:39:45;2.20;99.90
35645;DHT22;21764;52.042;6.830;2023-03-12T04:44:46;2.10;99.90
35645;DHT22;21764;52.042;6.830;2023-03-12T04:49:46;2.10;99.90
35645;DHT22;21764;52.042;6.830;2023-03-12T04:54:47;2.00;99.90
35645;DHT22;21764;52.042;6.830;2023-03-12T04:59:48;2.00;99.90
35645;DHT22;21764;52.042;6.830;2023-03-12T05:04:48;2.10;99.90
35645;DHT22;21764;52.042;6.830;2023-03-12T05:09:49;2.10;99.90
35645;DHT22;21764;52.042;6.830;2023-03-12T05:14:50;2.10;99.90
35645;DHT22;21764;52.042;6.830;2023-03-12T05:19:50;2.10;99.90
35645;DHT22;21764;52.042;6.830;2023-03-12T05:24:51;2.00;99.90
35645;DHT22;21764;52.042;6.830;2023-03-12T05:29:52;1.80;99.90
35645;DHT22;21764;52.042;6.830;2023-03-12T05:34:52;1.80;99.90
35645;DHT22;21764;52.042;6.830;2023-03-12T05:39:56;2.00;99.90
35645;DHT22;21764;52.042;6.830;2023-03-12T05:44:57;2.10;99.90
35645;DHT22;21764;52.042;6.830;2023-03-12T05:49:58;2.20;99.90
35645;DHT22;21764;52.042;6.830;2023-03-12T05:54:59;2.30;99.90
35645;DHT22;21764;52.042;6.830;2023-03-12T05:59:59;2.50;99.90
35645;DHT22;21764;52.042;6.830;2023-03-12T06:05:00;2.50;99.90
35645;DHT22;21764;52.042;6.830;2023-03-12T06:10:01;2.50;99.90
35645;DHT22;21764;52.042;6.830;2023-03-12T06:15:02;2.60;99.90
35645;DHT22;21764;52.042;6.830;2023-03-12T06:20:02;2.60;99.90
35645;DHT22;21764;52.042;6.830;2023-03-12T06:25:04;2.80;99.90
35645;DHT22;21764;52.042;6.830;2023-03-12T06:30:05;2.90;99.90
35645;DHT22;21764;52.042;6.830;2023-03-12T06:35:07;2.90;99.90
35645;DHT22;21764;52.042;6.830;2023-03-12T06:40:08;2.90;99.90
35645;DHT22;21764;52.042;6.830;2023-03-12T06:45:10;2.90;99.90
35645;DHT22;21764;52.042;6.830;2023-03-12T06:50:11;3.00;99.90
35645;DHT22;21764;52.042;6.830;2023-03-12T06:55:11;3.10;99.90
35645;DHT22;21764;52.042;6.830;2023-03-12T07:00:12;3.00;99.90
35645;DHT22;21764;52.042;6.830;2023-03-12T07:05:13;3.30;99.90
35645;DHT22;21764;52.042;6.830;2023-03-12T07:10:14;3.20;99.90
35645;DHT22;21764;52.042;6.830;2023-03-12T07:15:15;3.30;99.90
35645;DHT22;21764;52.042;6.830;2023-03-12T07:20:16;3.20;99.90
35645;DHT22;21764;52.042;6.830;2023-03-12T07:25:17;3.20;99.90
35645;DHT22;21764;52.042;6.830;2023-03-12T07:30:17;3.20;99.90
35645;DHT22;21764;52.042;6.830;2023-03-12T07:35:18;3.00;99.90
35645;DHT22;21764;52.042;6.830;2023-03-12T07:40:19;3.10;99.90
35645;DHT22;21764;52.042;6.830;2023-03-12T07:45:20;3.30;99.90
35645;DHT22;21764;52.042;6.830;2023-03-12T07:50:22;3.30;99.90
35645;DHT22;21764;52.042;6.830;2023-03-12T07:55:22;3.30;99.90
35645;DHT22;21764;52.042;6.830;2023-03-12T08:00:25;3.30;99.90
35645;DHT22;21764;52.042;6.830;2023-03-12T08:05:26;3.40;99.90
35645;DHT22;21764;52.042;6.830;2023-03-12T08:10:26;3.50;99.90
35645;DHT22;21764;52.042;6.830;2023-03-12T08:15:27;3.60;99.90
35645;DHT22;21764;52.042;6.830;2023-03-12T08:20:28;3.50;99.90
35645;DHT22;21764;52.042;6.830;2023-03-12T08:25:28;3.60;99.90
35645;DHT22;21764;52.042;6.830;2023-03-12T08:30:30;3.70;99.90
35645;DHT22;21764;52.042;6.830;2023-03-12T08:35:30;3.80;99.90
35645;DHT22;21764;52.042;6.830;2023-03-12T08:40:31;3.80;99.90
35645;DHT22;21764;52.042;6.830;2023-03-12T08:45:32;3.80;99.90
35645;DHT22;21764;52.042;6.830;2023-03-12T08:50:35;3.80;99.90
35645;DHT22;21764;52.042;6.830;2023-03-12T08:55:36;3.90;99.90
35645;DHT22;21764;52.042;6.830;2023-03-12T09:00:37;3.90;99.90
35645;DHT22;21764;52.042;6.830;2023-03-12T09:05:37;4.00;99.90
35645;DHT22;21764;52.042;6.830;2023-03-12T09:10:38;4.10;99.90
35645;DHT22;21764;52.042;6.830;2023-03-12T09:15:39;4.00;99.90
35645;DHT22;21764;52.042;6.830;2023-03-12T09:20:42;4.10;99.90
35645;DHT22;21764;52.042;6.830;2023-03-12T09:25:46;3.90;99.90
35645;DHT22;21764;52.042;6.830;2023-03-12T09:30:47;4.10;99.90
35645;DHT22;21764;52.042;6.830;2023-03-12T09:35:55;4.10;99.90
35645;DHT22;21764;52.042;6.830;2023-03-12T09:40:57;4.20;99.90
35645;DHT22;21764;52.042;6.830;2023-03-12T09:45:59;4.30;99.90
35645;DHT22;21764;52.042;6.830;2023-03-12T09:56:16;4.70;99.90
35645;DHT22;21764;52.042;6.830;2023-03-12T10:06:32;4.80;99.90
35645;DHT22;21764;52.042;6.830;2023-03-12T10:11:48;5.10;99.90
35645;DHT22;21764;52.042;6.830;2023-03-12T10:27:40;5.40;99.90
35645;DHT22;21764;52.042;6.830;2023-03-12T10:32:45;5.50;99.90
35645;DHT22;21764;52.042;6.830;2023-03-12T10:37:54;5.60;99.90
35645;DHT22;21764;52.042;6.830;2023-03-12T10:42:56;5.80;99.90
35645;DHT22;21764;52.042;6.830;2023-03-12T10:48:01;5.80;99.90
35645;DHT22;21764;52.042;6.830;2023-03-12T10:53:21;5.80;99.90
35645;DHT22;21764;52.042;6.830;2023-03-12T10:58:24;5.90;99.90
35645;DHT22;21764;52.042;6.830;2023-03-12T11:03:26;6.10;99.90
35645;DHT22;21764;52.042;6.830;2023-03-12T11:08:29;6.50;99.90
35645;DHT22;21764;52.042;6.830;2023-03-12T11:13:33;6.70;99.90
35645;DHT22;21764;52.042;6.830;2023-03-12T11:18:36;6.70;99.90
35645;DHT22;21764;52.042;6.830;2023-03-12T11:23:41;6.90;99.90
35645;DHT22;21764;52.042;6.830;2023-03-12T11:28:47;7.00;99.90
35645;DHT22;21764;52.042;6.830;2023-03-12T11:33:50;7.10;99.90
35645;DHT22;21764;52.042;6.830;2023-03-12T11:44:34;7.40;99.90
35645;DHT22;21764;52.042;6.830;2023-03-12T11:49:43;7.60;99.90
35645;DHT22;21764;52.042;6.830;2023-03-12T12:11:18;7.60;99.90
35645;DHT22;21764;52.042;6.830;2023-03-12T12:32:26;8.20;99.90
35645;DHT22;21764;52.042;6.830;2023-03-12T12:42:51;8.60;99.90
35645;DHT22;21764;52.042;6.830;2023-03-12T12:48:16;8.50;99.90
35645;DHT22;21764;52.042;6.830;2023-03-12T12:53:39;8.50;99.90
35645;DHT22;21764;52.042;6.830;2023-03-12T13:04:16;9.00;99.90
35645;DHT22;21764;52.042;6.830;2023-03-12T13:09:20;9.40;99.90
35645;DHT22;21764;52.042;6.830;2023-03-12T13:14:35;9.50;99.90
35645;DHT22;21764;52.042;6.830;2023-03-12T13:19:39;9.90;99.90
35645;DHT22;21764;52.042;6.830;2023-03-12T13:24:47;9.90;99.90
35645;DHT22;21764;52.042;6.830;2023-03-12T13:29:51;9.80;99.90
35645;DHT22;21764;52.042;6.830;2023-03-12T13:34:56;10.00;99.90
35645;DHT22;21764;52.042;6.830;2023-03-12T13:40:00;9.80;99.90
35645;DHT22;21764;52.042;6.830;2023-03-12T13:45:21;9.80;99.90
35645;DHT22;21764;52.042;6.830;2023-03-12T13:50:22;9.70;99.90
35645;DHT22;21764;52.042;6.830;2023-03-12T13:55:27;9.70;99.90
35645;DHT22;21764;52.042;6.830;2023-03-12T14:00:51;10.30;99.90
35645;DHT22;21764;52.042;6.830;2023-03-12T14:16:39;10.80;99.90
35645;DHT22;21764;52.042;6.830;2023-03-12T14:21:43;10.70;99.90
35645;DHT22;21764;52.042;6.830;2023-03-12T14:26:45;10.70;99.90
35645;DHT22;21764;52.042;6.830;2023-03-12T14:31:47;10.80;99.90
35645;DHT22;21764;52.042;6.830;2023-03-12T14:37:28;10.80;99.90
35645;DHT22;21764;52.042;6.830;2023-03-12T14:42:33;11.20;99.90
35645;DHT22;21764;52.042;6.830;2023-03-12T14:47:42;11.00;99.90
35645;DHT22;21764;52.042;6.830;2023-03-12T14:52:43;11.20;99.90
35645;DHT22;21764;52.042;6.830;2023-03-12T14:57:45;11.40;99.90
35645;DHT22;21764;52.042;6.830;2023-03-12T15:02:45;11.70;99.90
35645;DHT22;21764;52.042;6.830;2023-03-12T15:07:48;11.70;99.90
35645;DHT22;21764;52.042;6.830;2023-03-12T15:12:51;11.80;99.90
35645;DHT22;21764;52.042;6.830;2023-03-12T15:17:53;11.70;99.90
35645;DHT22;21764;52.042;6.830;2023-03-12T15:22:54;11.60;99.90
35645;DHT22;21764;52.042;6.830;2023-03-12T15:28:23;11.30;99.90
35645;DHT22;21764;52.042;6.830;2023-03-12T15:33:24;11.10;99.90
35645;DHT22;21764;52.042;6.830;2023-03-12T15:38:25;10.90;99.90
35645;DHT22;21764;52.042;6.830;2023-03-12T15:43:26;10.80;99.90
35645;DHT22;21764;52.042;6.830;2023-03-12T15:48:32;10.80;99.90
35645;DHT22;21764;52.042;6.830;2023-03-12T15:53:34;10.70;99.90
35645;DHT22;21764;52.042;6.830;2023-03-12T15:58:36;10.70;99.90
35645;DHT22;21764;52.042;6.830;2023-03-12T16:03:38;10.60;99.90
35645;DHT22;21764;52.042;6.830;2023-03-12T16:13:47;10.60;99.90
35645;DHT22;21764;52.042;6.830;2023-03-12T16:18:48;10.60;99.90
35645;DHT22;21764;52.042;6.830;2023-03-12T16:23:49;10.50;99.90
35645;DHT22;21764;52.042;6.830;2023-03-12T16:28:50;10.50;99.90
35645;DHT22;21764;52.042;6.830;2023-03-12T16:33:50;10.40;99.90
35645;DHT22;21764;52.042;6.830;2023-03-12T16:38:51;10.40;99.90
35645;DHT22;21764;52.042;6.830;2023-03-12T16:43:52;10.40;99.90
35645;DHT22;21764;52.042;6.830;2023-03-12T16:48:53;10.20;99.90
35645;DHT22;21764;52.042;6.830;2023-03-12T16:53:54;10.00;99.90
35645;DHT22;21764;52.042;6.830;2023-03-12T16:58:56;10.00;99.90
35645;DHT22;21764;52.042;6.830;2023-03-12T17:03:59;9.90;99.90
35645;DHT22;21764;52.042;6.830;2023-03-12T17:08:59;9.80;99.90
35645;DHT22;21764;52.042;6.830;2023-03-12T17:14:04;9.80;99.90
35645;DHT22;21764;52.042;6.830;2023-03-12T17:19:06;9.80;99.90
35645;DHT22;21764;52.042;6.830;2023-03-12T17:24:08;9.70;99.90
35645;DHT22;21764;52.042;6.830;2023-03-12T17:29:09;9.70;99.90
35645;DHT22;21764;52.042;6.830;2023-03-12T17:34:10;9.70;99.90
35645;DHT22;21764;52.042;6.830;2023-03-12T17:39:11;9.60;99.90
35645;DHT22;21764;52.042;6.830;2023-03-12T17:44:11;9.60;99.90
35645;DHT22;21764;52.042;6.830;2023-03-12T17:49:14;9.60;99.90
35645;DHT22;21764;52.042;6.830;2023-03-12T17:54:14;9.70;99.90
35645;DHT22;21764;52.042;6.830;2023-03-12T17:59:15;9.70;99.90
35645;DHT22;21764;52.042;6.830;2023-03-12T18:04:16;9.70;99.90
35645;DHT22;21764;52.042;6.830;2023-03-12T18:09:16;9.70;99.90
35645;DHT22;21764;52.042;6.830;2023-03-12T18:14:17;9.70;99.90
35645;DHT22;21764;52.042;6.830;2023-03-12T18:19:18;9.60;99.90
35645;DHT22;21764;52.042;6.830;2023-03-12T18:24:18;9.50;99.90
35645;DHT22;21764;52.042;6.830;2023-03-12T18:29:19;9.50;99.90
35645;DHT22;21764;52.042;6.830;2023-03-12T18:34:20;9.50;99.90
35645;DHT22;21764;52.042;6.830;2023-03-12T18:39:22;9.40;99.90
35645;DHT22;21764;52.042;6.830;2023-03-12T18:44:23;9.40;99.90
35645;DHT22;21764;52.042;6.830;2023-03-12T18:49:24;9.40;99.90
35645;DHT22;21764;52.042;6.830;2023-03-12T18:54:24;9.50;99.90
35645;DHT22;21764;52.042;6.830;2023-03-12T18:59:25;9.40;99.90
35645;DHT22;21764;52.042;6.830;2023-03-12T19:04:26;9.40;99.90
35645;DHT22;21764;52.042;6.830;2023-03-12T19:09:26;9.50;99.90
35645;DHT22;21764;52.042;6.830;2023-03-12T19:14:27;9.60;99.90
35645;DHT22;21764;52.042;6.830;2023-03-12T19:19:28;9.50;99.90
35645;DHT22;21764;52.042;6.830;2023-03-12T19:24:29;9.60;99.90
35645;DHT22;21764;52.042;6.830;2023-03-12T19:29:30;9.60;99.90
35645;DHT22;21764;52.042;6.830;2023-03-12T19:34:31;9.70;99.90
35645;DHT22;21764;52.042;6.830;2023-03-12T19:39:32;9.60;99.90
35645;DHT22;21764;52.042;6.830;2023-03-12T19:44:32;9.60;99.90
35645;DHT22;21764;52.042;6.830;2023-03-12T19:49:35;9.70;99.90
35645;DHT22;21764;52.042;6.830;2023-03-12T19:54:36;9.70;99.90
35645;DHT22;21764;52.042;6.830;2023-03-12T19:59:37;9.70;99.90
35645;DHT22;21764;52.042;6.830;2023-03-12T20:04:38;9.70;99.90
35645;DHT22;21764;52.042;6.830;2023-03-12T20:09:38;9.80;99.90
35645;DHT22;21764;52.042;6.830;2023-03-12T20:14:39;9.80;99.90
35645;DHT22;21764;52.042;6.830;2023-03-12T20:19:39;9.80;99.90
35645;DHT22;21764;52.042;6.830;2023-03-12T20:24:41;9.80;99.90
35645;DHT22;21764;52.042;6.830;2023-03-12T20:29:42;9.80;99.90
35645;DHT22;21764;52.042;6.830;2023-03-12T20:34:45;9.90;99.90
35645;DHT22;21764;52.042;6.830;2023-03-12T20:39:46;9.80;99.90
35645;DHT22;21764;52.042;6.830;2023-03-12T20:44:46;9.90;99.90
35645;DHT22;21764;52.042;6.830;2023-03-12T20:49:47;10.00;99.90
35645;DHT22;21764;52.042;6.830;2023-03-12T20:54:48;10.00;99.90
35645;DHT22;21764;52.042;6.830;2023-03-12T20:59:48;10.00;99.90
35645;DHT22;21764;52.042;6.830;2023-03-12T21:04:49;10.00;99.90
35645;DHT22;21764;52.042;6.830;2023-03-12T21:09:51;10.00;99.90
35645;DHT22;21764;52.042;6.830;2023-03-12T21:14:52;9.90;99.90
35645;DHT22;21764;52.042;6.830;2023-03-12T21:19:53;9.90;99.90
35645;DHT22;21764;52.042;6.830;2023-03-12T21:24:53;9.90;99.90
35645;DHT22;21764;52.042;6.830;2023-03-12T21:29:54;9.90;99.90
35645;DHT22;21764;52.042;6.830;2023-03-12T21:34:55;9.90;99.90
35645;DHT22;21764;52.042;6.830;2023-03-12T21:39:56;9.90;99.90
35645;DHT22;21764;52.042;6.830;2023-03-12T21:45:00;9.90;99.90
35645;DHT22;21764;52.042;6.830;2023-03-12T21:50:01;9.80;99.90
35645;DHT22;21764;52.042;6.830;2023-03-12T21:55:01;9.80;99.90
35645;DHT22;21764;52.042;6.830;2023-03-12T22:00:02;9.90;99.90
35645;DHT22;21764;52.042;6.830;2023-03-12T22:05:04;9.90;99.90
35645;DHT22;21764;52.042;6.830;2023-03-12T22:10:06;9.90;99.90
35645;DHT22;21764;52.042;6.830;2023-03-12T22:15:07;9.90;99.90
35645;DHT22;21764;52.042;6.830;2023-03-12T22:20:09;9.90;99.90
35645;DHT22;21764;52.042;6.830;2023-03-12T22:25:09;9.80;99.90
35645;DHT22;21764;52.042;6.830;2023-03-12T22:30:10;9.80;99.90
35645;DHT22;21764;52.042;6.830;2023-03-12T22:35:12;9.80;99.90
35645;DHT22;21764;52.042;6.830;2023-03-12T22:40:13;9.90;99.90
35645;DHT22;21764;52.042;6.830;2023-03-12T22:45:14;9.90;99.90
35645;DHT22;21764;52.042;6.830;2023-03-12T22:50:15;9.80;99.90
35645;DHT22;21764;52.042;6.830;2023-03-12T22:55:16;9.80;99.90
35645;DHT22;21764;52.042;6.830;2023-03-12T23:00:19;9.70;99.90
35645;DHT22;21764;52.042;6.830;2023-03-12T23:05:22;9.70;99.90
35645;DHT22;21764;52.042;6.830;2023-03-12T23:10:23;9.70;99.90
35645;DHT22;21764;52.042;6.830;2023-03-12T23:15:23;9.80;99.90
35645;DHT22;21764;52.042;6.830;2023-03-12T23:20:24;9.80;99.90
35645;DHT22;21764;52.042;6.830;2023-03-12T23:25:24;9.80;99.90
35645;DHT22;21764;52.042;6.830;2023-03-12T23:30:25;9.80;99.90
35645;DHT22;21764;52.042;6.830;2023-03-12T23:35:26;9.80;99.90
35645;DHT22;21764;52.042;6.830;2023-03-12T23:40:27;9.80;99.90
35645;DHT22;21764;52.042;6.830;2023-03-12T23:45:27;9.80;99.90
35645;DHT22;21764;52.042;6.830;2023-03-12T23:50:28;9.90;99.90
35645;DHT22;21764;52.042;6.830;2023-03-12T23:55:29;9.90;99.90
